Meteo Giornale » Osservazioni meteo Stati Uniti (USA) » Prescott Love Fld
ore: 21:53 - Osservazioni Meteo Prescott Love Fld
Lat. 34° 38' N Lon. 112° 25' W Alt. 1537 metri s.l.m.
18 °C
Sereno
Temp. 24 Ore
15 °C
24 °C
Nord
0 Km/h
Dew point 14 °C
Umidità 77 %
Visibilità 10 Km
Il sole sorge alle ore 06:02
Il sole tramonta alle ore 18:57
| Data e Ora | Cielo e Fenomeni | T °C | DP °C | Um. % | Pres. hPa | Vis. km | Vento km/h | |
|---|---|---|---|---|---|---|---|---|
| Oggi h: 21:53 | Sereno | 18 | 14 | 77 | 1022 | 10 | N 0 | |
| Oggi h: 20:53 | Sereno | 19 | 13 | 68 | 1021 | 10 | S 7.4 | |
| Oggi h: 18:53 | Sereno | 22 | 14 | 60 | 1020 | 10 | S/SE 11.1 | |
| Oggi h: 17:53 | Sereno | 22 | 14 | 60 | 1020 | 10 | SE 14.8 | |
| Oggi h: 16:53 | Nuvoloso | 23 | 14 | 56 | 1021 | 10 | SE 24 | |
| Oggi h: 16:39 | Molto Nuvoloso | 23 | 14 | 56 | 1021 | 10 | SE 24 | |
| Oggi h: 16:14 | Temporale | 23 | 14 | 56 | 1021 | 10 | SE 20.3 | |
| Oggi h: 15:53 | Molto Nuvoloso | 23 | 14 | 56 | 1021 | 10 | E/SE 22.2 | |
| Oggi h: 13:53 | Poco Nuvoloso | 24 | 15 | 57 | 1022 | 10 | E/SE 24 | |
| Oggi h: 12:53 | Sereno | 22 | 15 | 64 | 1023 | 10 | E/SE 20.3 | |
| Oggi h: 11:53 | Poco Nuvoloso | 22 | 15 | 64 | 1023 | 10 | SE 25.9 | |
| Oggi h: 10:53 | Sereno | 21 | 15 | 68 | 1023 | 10 | SE 25.9 | |
| Oggi h: 09:53 | Sereno | 20 | 14 | 68 | 1023 | 10 | SE 29.6 | |
| Oggi h: 08:53 | Nuvoloso | 19 | 13 | 68 | 1022 | 10 | S/SE 14.8 | |
| Oggi h: 07:53 | Pioggia | 19 | 13 | 68 | 1022 | 10 | E/NE 11.1 | |
| Oggi h: 06:53 | Poco Nuvoloso | 16 | 13 | 82 | 1021 | 10 | N 5.5 | |
| Oggi h: 05:53 | Sereno | 15 | 13 | 87 | 1021 | 10 | N 0 | |
| Oggi h: 04:53 | Sereno | 16 | 12 | 77 | 1020 | 10 | S 7.4 | |
| Oggi h: 03:53 | Sereno | 17 | 12 | 72 | 1020 | 10 | S/SO 11.1 | |
| Oggi h: 02:53 | Poco Nuvoloso | 18 | 12 | 67 | 1021 | 10 | E/SE 7.4 | |
| Oggi h: 01:53 | Sereno | 18 | 13 | 72 | 1022 | 10 | SO 13 | |
| Oggi h: 01:04 | Poco Nuvoloso | 18 | 14 | 77 | 1022 | 10 | SE 25.9 | |
| Oggi h: 00:53 | Pioggia | 21 | 12 | 56 | 1022 | 10 | SE 22.2 | |
| Oggi h: 00:42 | Pioggia | 21 | 12 | 56 | 1022 | 10 | S 25.9 | |
| Ieri h: 23:53 | Temporale nelle vicinanze | 22 | 17 | 73 | 1021 | 10 | S 14.8 | |
| Ieri h: 23:24 | Temporale | 23 | 16 | 64 | 1020 | 10 | SE 11.1 | |
| Ieri h: 22:53 | Sereno | 24 | 16 | 60 | 1020 | 10 | S/SO 13 | |



